sensor_id;sensor_type;location;lat;lon;timestamp;P1;durP1;ratioP1;P2;durP2;ratioP2
23181;SDS011;11759;51.282;6.642;2023-07-28T00:01:54;563.05;;;170.15;;
23181;SDS011;11759;51.282;6.642;2023-07-28T00:04:21;562.90;;;164.35;;
23181;SDS011;11759;51.282;6.642;2023-07-28T00:06:48;557.75;;;162.50;;
23181;SDS011;11759;51.282;6.642;2023-07-28T00:09:14;577.97;;;182.23;;
23181;SDS011;11759;51.282;6.642;2023-07-28T00:11:41;548.50;;;158.00;;
23181;SDS011;11759;51.282;6.642;2023-07-28T00:14:07;629.55;;;225.30;;
23181;SDS011;11759;51.282;6.642;2023-07-28T00:16:34;551.92;;;163.98;;
23181;SDS011;11759;51.282;6.642;2023-07-28T00:19:01;565.00;;;170.00;;
23181;SDS011;11759;51.282;6.642;2023-07-28T00:21:28;541.17;;;153.95;;
23181;SDS011;11759;51.282;6.642;2023-07-28T00:23:54;564.53;;;168.55;;
23181;SDS011;11759;51.282;6.642;2023-07-28T00:26:21;574.05;;;177.70;;
23181;SDS011;11759;51.282;6.642;2023-07-28T00:28:48;550.78;;;160.05;;
23181;SDS011;11759;51.282;6.642;2023-07-28T00:31:15;549.85;;;164.95;;
23181;SDS011;11759;51.282;6.642;2023-07-28T00:33:41;555.35;;;161.25;;
23181;SDS011;11759;51.282;6.642;2023-07-28T00:36:08;545.20;;;159.32;;
23181;SDS011;11759;51.282;6.642;2023-07-28T00:38:35;578.03;;;199.23;;
23181;SDS011;11759;51.282;6.642;2023-07-28T00:41:02;553.53;;;165.45;;
23181;SDS011;11759;51.282;6.642;2023-07-28T00:43:28;573.97;;;188.10;;
23181;SDS011;11759;51.282;6.642;2023-07-28T00:45:55;621.95;;;221.85;;
23181;SDS011;11759;51.282;6.642;2023-07-28T00:48:22;551.78;;;187.20;;
23181;SDS011;11759;51.282;6.642;2023-07-28T00:50:49;574.17;;;200.05;;
23181;SDS011;11759;51.282;6.642;2023-07-28T00:53:17;546.65;;;176.57;;
23181;SDS011;11759;51.282;6.642;2023-07-28T00:55:45;571.63;;;176.95;;
23181;SDS011;11759;51.282;6.642;2023-07-28T00:58:12;551.25;;;181.35;;
23181;SDS011;11759;51.282;6.642;2023-07-28T01:00:39;555.95;;;162.85;;
23181;SDS011;11759;51.282;6.642;2023-07-28T01:03:06;572.92;;;176.50;;
23181;SDS011;11759;51.282;6.642;2023-07-28T01:11:09;538.80;;;152.55;;
23181;SDS011;11759;51.282;6.642;2023-07-28T01:13:36;542.10;;;159.10;;
23181;SDS011;11759;51.282;6.642;2023-07-28T01:16:02;554.20;;;184.38;;
23181;SDS011;11759;51.282;6.642;2023-07-28T01:18:29;538.78;;;154.00;;
23181;SDS011;11759;51.282;6.642;2023-07-28T01:20:56;560.20;;;164.65;;
23181;SDS011;11759;51.282;6.642;2023-07-28T01:24:09;537.80;;;142.65;;
23181;SDS011;11759;51.282;6.642;2023-07-28T01:26:52;572.20;;;168.10;;
23181;SDS011;11759;51.282;6.642;2023-07-28T01:29:12;518.20;;;139.32;;
23181;SDS011;11759;51.282;6.642;2023-07-28T01:31:39;519.33;;;139.13;;
23181;SDS011;11759;51.282;6.642;2023-07-28T01:34:06;512.78;;;133.05;;
23181;SDS011;11759;51.282;6.642;2023-07-28T01:36:32;516.13;;;133.70;;
23181;SDS011;11759;51.282;6.642;2023-07-28T01:38:59;513.00;;;132.95;;
23181;SDS011;11759;51.282;6.642;2023-07-28T01:41:26;535.60;;;156.10;;
23181;SDS011;11759;51.282;6.642;2023-07-28T01:43:53;537.72;;;149.65;;
23181;SDS011;11759;51.282;6.642;2023-07-28T01:46:22;545.08;;;159.55;;
23181;SDS011;11759;51.282;6.642;2023-07-28T01:48:49;540.80;;;153.30;;
23181;SDS011;11759;51.282;6.642;2023-07-28T01:51:15;545.15;;;159.70;;
23181;SDS011;11759;51.282;6.642;2023-07-28T01:53:42;542.20;;;148.18;;
23181;SDS011;11759;51.282;6.642;2023-07-28T01:56:10;542.13;;;159.20;;
23181;SDS011;11759;51.282;6.642;2023-07-28T01:58:36;543.10;;;155.73;;
23181;SDS011;11759;51.282;6.642;2023-07-28T02:01:03;539.38;;;153.13;;
23181;SDS011;11759;51.282;6.642;2023-07-28T02:03:30;539.90;;;152.63;;
23181;SDS011;11759;51.282;6.642;2023-07-28T02:05:57;538.17;;;150.38;;
23181;SDS011;11759;51.282;6.642;2023-07-28T02:08:23;543.88;;;152.13;;
23181;SDS011;11759;51.282;6.642;2023-07-28T02:10:50;539.38;;;150.52;;
23181;SDS011;11759;51.282;6.642;2023-07-28T02:13:19;542.63;;;147.68;;
23181;SDS011;11759;51.282;6.642;2023-07-28T02:15:46;537.15;;;148.13;;
23181;SDS011;11759;51.282;6.642;2023-07-28T02:18:15;535.35;;;147.25;;
23181;SDS011;11759;51.282;6.642;2023-07-28T02:20:42;537.40;;;144.27;;
23181;SDS011;11759;51.282;6.642;2023-07-28T02:23:09;539.55;;;154.27;;
23181;SDS011;11759;51.282;6.642;2023-07-28T02:25:36;540.97;;;164.60;;
23181;SDS011;11759;51.282;6.642;2023-07-28T02:28:02;542.63;;;160.55;;
23181;SDS011;11759;51.282;6.642;2023-07-28T02:30:29;537.13;;;150.98;;
23181;SDS011;11759;51.282;6.642;2023-07-28T02:32:56;554.22;;;180.05;;
23181;SDS011;11759;51.282;6.642;2023-07-28T02:35:22;546.10;;;158.80;;
23181;SDS011;11759;51.282;6.642;2023-07-28T02:37:49;546.60;;;160.77;;
23181;SDS011;11759;51.282;6.642;2023-07-28T02:40:16;557.15;;;175.63;;
23181;SDS011;11759;51.282;6.642;2023-07-28T02:42:43;537.58;;;152.65;;
23181;SDS011;11759;51.282;6.642;2023-07-28T02:45:10;550.75;;;183.27;;
23181;SDS011;11759;51.282;6.642;2023-07-28T02:47:37;537.78;;;150.43;;
23181;SDS011;11759;51.282;6.642;2023-07-28T02:50:06;544.53;;;157.98;;
23181;SDS011;11759;51.282;6.642;2023-07-28T02:52:33;540.35;;;153.90;;
23181;SDS011;11759;51.282;6.642;2023-07-28T02:55:00;533.03;;;148.60;;
23181;SDS011;11759;51.282;6.642;2023-07-28T02:57:27;547.55;;;167.25;;
23181;SDS011;11759;51.282;6.642;2023-07-28T02:59:54;535.15;;;151.77;;
23181;SDS011;11759;51.282;6.642;2023-07-28T03:02:21;542.95;;;162.20;;
23181;SDS011;11759;51.282;6.642;2023-07-28T03:04:51;534.33;;;148.73;;
23181;SDS011;11759;51.282;6.642;2023-07-28T03:07:24;544.88;;;166.38;;
23181;SDS011;11759;51.282;6.642;2023-07-28T03:09:58;533.50;;;151.32;;
23181;SDS011;11759;51.282;6.642;2023-07-28T03:12:26;535.80;;;150.05;;
23181;SDS011;11759;51.282;6.642;2023-07-28T03:14:52;537.15;;;152.48;;
23181;SDS011;11759;51.282;6.642;2023-07-28T03:17:19;535.95;;;151.88;;
23181;SDS011;11759;51.282;6.642;2023-07-28T03:19:46;542.88;;;159.80;;
23181;SDS011;11759;51.282;6.642;2023-07-28T03:22:13;540.90;;;158.60;;
23181;SDS011;11759;51.282;6.642;2023-07-28T03:24:39;537.97;;;150.40;;
23181;SDS011;11759;51.282;6.642;2023-07-28T03:27:06;541.03;;;161.93;;
23181;SDS011;11759;51.282;6.642;2023-07-28T03:29:32;540.22;;;153.85;;
23181;SDS011;11759;51.282;6.642;2023-07-28T03:31:59;543.80;;;176.55;;
23181;SDS011;11759;51.282;6.642;2023-07-28T03:34:26;541.53;;;157.38;;
23181;SDS011;11759;51.282;6.642;2023-07-28T03:36:54;551.88;;;170.40;;
23181;SDS011;11759;51.282;6.642;2023-07-28T03:39:21;542.55;;;160.73;;
23181;SDS011;11759;51.282;6.642;2023-07-28T03:41:49;547.10;;;171.95;;
23181;SDS011;11759;51.282;6.642;2023-07-28T03:44:16;537.47;;;158.85;;
23181;SDS011;11759;51.282;6.642;2023-07-28T03:46:43;545.78;;;165.20;;
23181;SDS011;11759;51.282;6.642;2023-07-28T03:49:10;541.38;;;157.30;;
23181;SDS011;11759;51.282;6.642;2023-07-28T03:51:36;536.17;;;151.07;;
23181;SDS011;11759;51.282;6.642;2023-07-28T03:54:03;538.65;;;160.00;;
23181;SDS011;11759;51.282;6.642;2023-07-28T03:56:30;545.05;;;159.90;;
23181;SDS011;11759;51.282;6.642;2023-07-28T03:58:56;550.28;;;169.85;;
23181;SDS011;11759;51.282;6.642;2023-07-28T04:01:25;536.05;;;153.00;;
23181;SDS011;11759;51.282;6.642;2023-07-28T04:03:52;548.45;;;174.48;;
23181;SDS011;11759;51.282;6.642;2023-07-28T04:06:18;550.22;;;176.38;;
23181;SDS011;11759;51.282;6.642;2023-07-28T04:08:45;545.03;;;157.82;;
23181;SDS011;11759;51.282;6.642;2023-07-28T04:11:12;546.65;;;172.43;;
23181;SDS011;11759;51.282;6.642;2023-07-28T04:13:40;548.08;;;166.63;;
23181;SDS011;11759;51.282;6.642;2023-07-28T04:16:06;543.08;;;165.13;;
23181;SDS011;11759;51.282;6.642;2023-07-28T04:18:33;547.88;;;170.63;;
23181;SDS011;11759;51.282;6.642;2023-07-28T04:21:00;543.28;;;160.02;;
23181;SDS011;11759;51.282;6.642;2023-07-28T04:23:26;547.72;;;169.68;;
23181;SDS011;11759;51.282;6.642;2023-07-28T04:25:53;542.13;;;155.27;;
23181;SDS011;11759;51.282;6.642;2023-07-28T04:28:20;544.00;;;168.20;;
23181;SDS011;11759;51.282;6.642;2023-07-28T04:30:51;544.45;;;164.80;;
23181;SDS011;11759;51.282;6.642;2023-07-28T04:33:38;545.70;;;160.30;;
23181;SDS011;11759;51.282;6.642;2023-07-28T04:36:07;541.42;;;165.40;;
23181;SDS011;11759;51.282;6.642;2023-07-28T04:38:34;537.30;;;157.80;;
23181;SDS011;11759;51.282;6.642;2023-07-28T04:41:01;536.15;;;152.57;;
23181;SDS011;11759;51.282;6.642;2023-07-28T04:44:00;536.60;;;152.80;;
23181;SDS011;11759;51.282;6.642;2023-07-28T04:46:32;538.67;;;158.85;;
23181;SDS011;11759;51.282;6.642;2023-07-28T04:49:03;540.45;;;160.88;;
23181;SDS011;11759;51.282;6.642;2023-07-28T04:51:48;541.25;;;161.65;;
23181;SDS011;11759;51.282;6.642;2023-07-28T04:54:26;541.25;;;164.95;;
23181;SDS011;11759;51.282;6.642;2023-07-28T04:56:53;536.42;;;154.38;;
23181;SDS011;11759;51.282;6.642;2023-07-28T04:59:27;547.75;;;177.27;;
23181;SDS011;11759;51.282;6.642;2023-07-28T05:01:54;539.53;;;161.98;;
23181;SDS011;11759;51.282;6.642;2023-07-28T05:04:21;555.55;;;190.77;;
23181;SDS011;11759;51.282;6.642;2023-07-28T05:06:47;538.22;;;160.23;;
23181;SDS011;11759;51.282;6.642;2023-07-28T05:09:14;539.45;;;165.63;;
23181;SDS011;11759;51.282;6.642;2023-07-28T05:11:41;534.28;;;157.10;;
23181;SDS011;11759;51.282;6.642;2023-07-28T05:14:07;536.97;;;161.32;;
23181;SDS011;11759;51.282;6.642;2023-07-28T05:16:35;545.33;;;163.48;;
23181;SDS011;11759;51.282;6.642;2023-07-28T05:19:20;556.75;;;194.48;;
23181;SDS011;11759;51.282;6.642;2023-07-28T05:22:06;541.78;;;162.10;;
23181;SDS011;11759;51.282;6.642;2023-07-28T05:24:48;538.80;;;159.35;;
23181;SDS011;11759;51.282;6.642;2023-07-28T05:27:16;542.75;;;163.90;;
23181;SDS011;11759;51.282;6.642;2023-07-28T05:29:46;543.28;;;166.10;;
23181;SDS011;11759;51.282;6.642;2023-07-28T05:32:12;543.03;;;168.75;;
23181;SDS011;11759;51.282;6.642;2023-07-28T05:34:59;540.42;;;160.18;;
23181;SDS011;11759;51.282;6.642;2023-07-28T05:37:26;547.65;;;176.65;;
23181;SDS011;11759;51.282;6.642;2023-07-28T05:39:52;541.72;;;167.57;;
23181;SDS011;11759;51.282;6.642;2023-07-28T05:42:20;542.75;;;173.18;;
23181;SDS011;11759;51.282;6.642;2023-07-28T05:44:48;550.78;;;184.52;;
23181;SDS011;11759;51.282;6.642;2023-07-28T05:47:15;545.72;;;169.23;;
23181;SDS011;11759;51.282;6.642;2023-07-28T05:49:41;550.42;;;177.10;;
23181;SDS011;11759;51.282;6.642;2023-07-28T05:52:08;546.13;;;172.35;;
23181;SDS011;11759;51.282;6.642;2023-07-28T05:54:35;545.70;;;163.88;;
23181;SDS011;11759;51.282;6.642;2023-07-28T05:57:01;551.60;;;178.02;;
23181;SDS011;11759;51.282;6.642;2023-07-28T05:59:28;548.20;;;179.93;;
23181;SDS011;11759;51.282;6.642;2023-07-28T06:01:55;565.83;;;209.23;;
23181;SDS011;11759;51.282;6.642;2023-07-28T06:04:25;548.47;;;169.13;;
23181;SDS011;11759;51.282;6.642;2023-07-28T06:06:55;555.67;;;180.75;;
23181;SDS011;11759;51.282;6.642;2023-07-28T06:09:22;549.63;;;173.45;;
23181;SDS011;11759;51.282;6.642;2023-07-28T06:11:49;549.70;;;178.65;;
23181;SDS011;11759;51.282;6.642;2023-07-28T06:14:16;550.33;;;169.90;;
23181;SDS011;11759;51.282;6.642;2023-07-28T06:16:42;557.97;;;191.02;;
23181;SDS011;11759;51.282;6.642;2023-07-28T06:19:09;555.50;;;174.70;;
23181;SDS011;11759;51.282;6.642;2023-07-28T06:21:38;554.13;;;171.05;;
23181;SDS011;11759;51.282;6.642;2023-07-28T06:24:07;555.13;;;182.52;;
23181;SDS011;11759;51.282;6.642;2023-07-28T06:26:33;551.72;;;182.15;;
23181;SDS011;11759;51.282;6.642;2023-07-28T06:29:00;554.08;;;177.02;;
23181;SDS011;11759;51.282;6.642;2023-07-28T06:31:27;551.13;;;173.80;;
23181;SDS011;11759;51.282;6.642;2023-07-28T06:33:54;553.63;;;180.45;;
23181;SDS011;11759;51.282;6.642;2023-07-28T06:36:20;552.63;;;174.38;;
23181;SDS011;11759;51.282;6.642;2023-07-28T06:38:48;555.45;;;187.82;;
23181;SDS011;11759;51.282;6.642;2023-07-28T06:41:15;552.67;;;173.40;;
23181;SDS011;11759;51.282;6.642;2023-07-28T06:43:44;558.40;;;189.52;;
23181;SDS011;11759;51.282;6.642;2023-07-28T06:46:11;550.95;;;171.73;;
23181;SDS011;11759;51.282;6.642;2023-07-28T06:48:38;556.97;;;184.60;;
23181;SDS011;11759;51.282;6.642;2023-07-28T06:51:05;553.58;;;180.65;;
23181;SDS011;11759;51.282;6.642;2023-07-28T06:53:32;548.97;;;173.27;;
23181;SDS011;11759;51.282;6.642;2023-07-28T06:56:00;553.47;;;182.40;;
23181;SDS011;11759;51.282;6.642;2023-07-28T06:58:27;552.10;;;172.57;;
23181;SDS011;11759;51.282;6.642;2023-07-28T07:00:54;564.40;;;201.88;;
23181;SDS011;11759;51.282;6.642;2023-07-28T07:03:22;557.65;;;190.02;;
23181;SDS011;11759;51.282;6.642;2023-07-28T07:05:50;550.53;;;175.32;;
23181;SDS011;11759;51.282;6.642;2023-07-28T07:08:16;559.90;;;190.65;;
23181;SDS011;11759;51.282;6.642;2023-07-28T07:10:47;555.70;;;182.85;;
23181;SDS011;11759;51.282;6.642;2023-07-28T07:13:16;559.38;;;192.57;;
23181;SDS011;11759;51.282;6.642;2023-07-28T07:15:44;553.05;;;172.13;;
23181;SDS011;11759;51.282;6.642;2023-07-28T07:18:13;558.38;;;194.30;;
23181;SDS011;11759;51.282;6.642;2023-07-28T07:20:39;554.30;;;180.75;;
23181;SDS011;11759;51.282;6.642;2023-07-28T07:23:06;561.80;;;196.45;;
23181;SDS011;11759;51.282;6.642;2023-07-28T07:25:34;557.85;;;179.55;;
23181;SDS011;11759;51.282;6.642;2023-07-28T07:28:02;559.65;;;191.38;;
23181;SDS011;11759;51.282;6.642;2023-07-28T07:30:31;558.17;;;188.35;;
23181;SDS011;11759;51.282;6.642;2023-07-28T07:32:59;558.67;;;193.68;;
23181;SDS011;11759;51.282;6.642;2023-07-28T07:35:26;556.33;;;188.43;;
23181;SDS011;11759;51.282;6.642;2023-07-28T07:37:52;557.53;;;188.00;;
23181;SDS011;11759;51.282;6.642;2023-07-28T07:40:19;565.05;;;214.60;;
23181;SDS011;11759;51.282;6.642;2023-07-28T07:42:46;554.35;;;188.65;;
23181;SDS011;11759;51.282;6.642;2023-07-28T07:45:14;560.85;;;209.15;;
23181;SDS011;11759;51.282;6.642;2023-07-28T07:47:41;554.47;;;190.35;;
23181;SDS011;11759;51.282;6.642;2023-07-28T07:50:08;570.33;;;226.23;;
23181;SDS011;11759;51.282;6.642;2023-07-28T07:52:36;555.00;;;192.68;;
23181;SDS011;11759;51.282;6.642;2023-07-28T07:55:06;562.42;;;210.15;;
23181;SDS011;11759;51.282;6.642;2023-07-28T07:57:35;553.47;;;189.45;;
23181;SDS011;11759;51.282;6.642;2023-07-28T08:00:01;557.38;;;195.50;;
23181;SDS011;11759;51.282;6.642;2023-07-28T08:02:37;550.30;;;182.13;;
23181;SDS011;11759;51.282;6.642;2023-07-28T08:05:04;559.78;;;213.20;;
23181;SDS011;11759;51.282;6.642;2023-07-28T08:07:31;554.97;;;187.40;;
23181;SDS011;11759;51.282;6.642;2023-07-28T08:09:58;561.33;;;193.35;;
23181;SDS011;11759;51.282;6.642;2023-07-28T08:12:25;556.53;;;189.45;;
23181;SDS011;11759;51.282;6.642;2023-07-28T08:14:51;554.28;;;193.13;;
23181;SDS011;11759;51.282;6.642;2023-07-28T08:17:21;557.88;;;195.75;;
23181;SDS011;11759;51.282;6.642;2023-07-28T08:19:48;559.05;;;195.23;;
23181;SDS011;11759;51.282;6.642;2023-07-28T08:22:15;552.97;;;186.23;;
23181;SDS011;11759;51.282;6.642;2023-07-28T08:24:41;554.63;;;180.48;;
23181;SDS011;11759;51.282;6.642;2023-07-28T08:27:08;555.65;;;189.38;;
23181;SDS011;11759;51.282;6.642;2023-07-28T08:29:35;554.08;;;187.60;;
23181;SDS011;11759;51.282;6.642;2023-07-28T08:32:01;551.08;;;180.18;;
23181;SDS011;11759;51.282;6.642;2023-07-28T08:34:29;551.58;;;177.93;;
23181;SDS011;11759;51.282;6.642;2023-07-28T08:36:56;554.03;;;188.73;;
23181;SDS011;11759;51.282;6.642;2023-07-28T08:39:22;555.13;;;194.07;;
23181;SDS011;11759;51.282;6.642;2023-07-28T08:41:57;553.30;;;180.75;;
23181;SDS011;11759;51.282;6.642;2023-07-28T08:44:29;556.63;;;185.35;;
23181;SDS011;11759;51.282;6.642;2023-07-28T08:46:56;564.75;;;208.63;;
23181;SDS011;11759;51.282;6.642;2023-07-28T08:49:23;550.63;;;178.02;;
23181;SDS011;11759;51.282;6.642;2023-07-28T08:51:50;569.28;;;219.05;;
23181;SDS011;11759;51.282;6.642;2023-07-28T08:54:17;560.85;;;202.77;;
23181;SDS011;11759;51.282;6.642;2023-07-28T08:56:43;562.13;;;201.57;;
23181;SDS011;11759;51.282;6.642;2023-07-28T08:59:10;564.58;;;207.48;;
23181;SDS011;11759;51.282;6.642;2023-07-28T09:01:40;564.60;;;210.43;;
23181;SDS011;11759;51.282;6.642;2023-07-28T09:04:10;566.50;;;216.52;;
23181;SDS011;11759;51.282;6.642;2023-07-28T09:06:38;561.75;;;205.13;;
23181;SDS011;11759;51.282;6.642;2023-07-28T09:09:07;564.53;;;222.60;;
23181;SDS011;11759;51.282;6.642;2023-07-28T09:11:43;569.83;;;231.57;;
23181;SDS011;11759;51.282;6.642;2023-07-28T09:14:13;574.67;;;243.88;;
23181;SDS011;11759;51.282;6.642;2023-07-28T09:16:40;570.08;;;239.43;;
23181;SDS011;11759;51.282;6.642;2023-07-28T09:19:08;573.03;;;248.52;;
23181;SDS011;11759;51.282;6.642;2023-07-28T09:21:35;579.92;;;255.15;;
23181;SDS011;11759;51.282;6.642;2023-07-28T09:24:06;576.88;;;255.25;;
23181;SDS011;11759;51.282;6.642;2023-07-28T09:26:44;580.30;;;278.00;;
23181;SDS011;11759;51.282;6.642;2023-07-28T09:31:40;576.55;;;260.00;;
23181;SDS011;11759;51.282;6.642;2023-07-28T09:34:07;578.95;;;258.13;;
23181;SDS011;11759;51.282;6.642;2023-07-28T09:36:35;573.15;;;252.57;;
23181;SDS011;11759;51.282;6.642;2023-07-28T09:39:02;577.60;;;268.38;;
23181;SDS011;11759;51.282;6.642;2023-07-28T09:41:30;584.60;;;278.15;;
23181;SDS011;11759;51.282;6.642;2023-07-28T09:43:56;574.60;;;260.80;;
23181;SDS011;11759;51.282;6.642;2023-07-28T09:46:24;580.35;;;274.10;;
23181;SDS011;11759;51.282;6.642;2023-07-28T09:48:52;575.22;;;257.38;;
23181;SDS011;11759;51.282;6.642;2023-07-28T09:51:22;576.38;;;268.70;;
23181;SDS011;11759;51.282;6.642;2023-07-28T09:53:58;577.40;;;275.55;;
23181;SDS011;11759;51.282;6.642;2023-07-28T09:56:32;580.60;;;281.67;;
23181;SDS011;11759;51.282;6.642;2023-07-28T09:59:00;579.22;;;279.50;;
23181;SDS011;11759;51.282;6.642;2023-07-28T10:01:29;593.97;;;318.50;;
23181;SDS011;11759;51.282;6.642;2023-07-28T10:03:57;585.85;;;295.25;;
23181;SDS011;11759;51.282;6.642;2023-07-28T10:06:24;595.55;;;318.73;;
23181;SDS011;11759;51.282;6.642;2023-07-28T10:08:51;585.95;;;301.80;;
23181;SDS011;11759;51.282;6.642;2023-07-28T10:11:18;590.72;;;320.20;;
23181;SDS011;11759;51.282;6.642;2023-07-28T10:13:45;584.33;;;297.88;;
23181;SDS011;11759;51.282;6.642;2023-07-28T10:16:13;581.65;;;294.58;;
23181;SDS011;11759;51.282;6.642;2023-07-28T10:18:51;596.88;;;323.05;;
23181;SDS011;11759;51.282;6.642;2023-07-28T10:21:21;584.30;;;293.95;;
23181;SDS011;11759;51.282;6.642;2023-07-28T10:23:54;589.13;;;312.98;;
23181;SDS011;11759;51.282;6.642;2023-07-28T10:29:18;593.28;;;334.63;;
23181;SDS011;11759;51.282;6.642;2023-07-28T10:31:54;596.63;;;349.50;;
23181;SDS011;11759;51.282;6.642;2023-07-28T10:34:22;586.55;;;311.80;;
23181;SDS011;11759;51.282;6.642;2023-07-28T10:36:58;607.97;;;369.60;;
23181;SDS011;11759;51.282;6.642;2023-07-28T10:39:26;591.15;;;350.70;;
23181;SDS011;11759;51.282;6.642;2023-07-28T10:42:06;580.05;;;335.60;;
23181;SDS011;11759;51.282;6.642;2023-07-28T10:44:35;569.13;;;323.45;;
23181;SDS011;11759;51.282;6.642;2023-07-28T10:47:01;572.85;;;331.75;;
23181;SDS011;11759;51.282;6.642;2023-07-28T10:49:28;570.63;;;328.48;;
23181;SDS011;11759;51.282;6.642;2023-07-28T10:51:55;561.28;;;302.95;;
23181;SDS011;11759;51.282;6.642;2023-07-28T10:54:22;571.38;;;316.05;;
23181;SDS011;11759;51.282;6.642;2023-07-28T10:56:49;576.28;;;321.83;;
23181;SDS011;11759;51.282;6.642;2023-07-28T10:59:15;569.70;;;308.95;;
23181;SDS011;11759;51.282;6.642;2023-07-28T11:01:42;570.72;;;300.33;;
23181;SDS011;11759;51.282;6.642;2023-07-28T11:04:10;566.85;;;292.70;;
23181;SDS011;11759;51.282;6.642;2023-07-28T11:06:37;563.15;;;276.88;;
23181;SDS011;11759;51.282;6.642;2023-07-28T11:09:05;563.45;;;271.73;;
23181;SDS011;11759;51.282;6.642;2023-07-28T11:11:33;559.33;;;259.23;;
23181;SDS011;11759;51.282;6.642;2023-07-28T11:14:00;554.47;;;249.13;;
23181;SDS011;11759;51.282;6.642;2023-07-28T11:16:27;558.22;;;251.52;;
23181;SDS011;11759;51.282;6.642;2023-07-28T11:18:55;564.75;;;273.63;;
23181;SDS011;11759;51.282;6.642;2023-07-28T11:21:23;570.10;;;298.63;;
23181;SDS011;11759;51.282;6.642;2023-07-28T11:23:50;601.15;;;397.73;;
23181;SDS011;11759;51.282;6.642;2023-07-28T11:26:17;587.47;;;376.45;;
23181;SDS011;11759;51.282;6.642;2023-07-28T11:28:43;590.25;;;382.48;;
23181;SDS011;11759;51.282;6.642;2023-07-28T11:31:10;573.33;;;334.13;;
23181;SDS011;11759;51.282;6.642;2023-07-28T11:33:37;575.72;;;309.20;;
23181;SDS011;11759;51.282;6.642;2023-07-28T11:36:04;558.50;;;270.58;;
23181;SDS011;11759;51.282;6.642;2023-07-28T11:38:31;547.13;;;246.23;;
23181;SDS011;11759;51.282;6.642;2023-07-28T11:40:59;543.25;;;230.60;;
23181;SDS011;11759;51.282;6.642;2023-07-28T11:43:26;540.30;;;222.77;;
23181;SDS011;11759;51.282;6.642;2023-07-28T11:45:53;548.67;;;243.45;;
23181;SDS011;11759;51.282;6.642;2023-07-28T11:48:19;550.75;;;255.88;;
23181;SDS011;11759;51.282;6.642;2023-07-28T11:50:47;564.72;;;313.90;;
23181;SDS011;11759;51.282;6.642;2023-07-28T11:53:14;575.22;;;367.80;;
23181;SDS011;11759;51.282;6.642;2023-07-28T11:55:41;596.22;;;453.67;;
23181;SDS011;11759;51.282;6.642;2023-07-28T11:58:08;613.53;;;515.17;;
23181;SDS011;11759;51.282;6.642;2023-07-28T12:00:39;647.10;;;576.50;;
23181;SDS011;11759;51.282;6.642;2023-07-28T12:05:37;668.15;;;597.97;;
23181;SDS011;11759;51.282;6.642;2023-07-28T12:08:32;568.03;;;405.05;;
23181;SDS011;11759;51.282;6.642;2023-07-28T12:10:59;566.92;;;420.45;;
23181;SDS011;11759;51.282;6.642;2023-07-28T12:13:29;561.67;;;393.65;;
23181;SDS011;11759;51.282;6.642;2023-07-28T12:15:58;571.22;;;420.33;;
23181;SDS011;11759;51.282;6.642;2023-07-28T12:18:30;571.17;;;413.50;;
23181;SDS011;11759;51.282;6.642;2023-07-28T12:21:00;561.92;;;371.60;;
23181;SDS011;11759;51.282;6.642;2023-07-28T12:23:27;548.85;;;327.95;;
23181;SDS011;11759;51.282;6.642;2023-07-28T12:25:57;549.35;;;328.10;;
23181;SDS011;11759;51.282;6.642;2023-07-28T12:28:24;542.53;;;302.67;;
23181;SDS011;11759;51.282;6.642;2023-07-28T12:30:52;550.28;;;320.75;;
23181;SDS011;11759;51.282;6.642;2023-07-28T12:33:22;553.60;;;331.92;;
23181;SDS011;11759;51.282;6.642;2023-07-28T12:35:49;549.22;;;333.50;;
23181;SDS011;11759;51.282;6.642;2023-07-28T12:38:17;542.92;;;310.35;;
23181;SDS011;11759;51.282;6.642;2023-07-28T12:40:46;549.70;;;301.35;;
23181;SDS011;11759;51.282;6.642;2023-07-28T12:43:16;536.08;;;288.30;;
23181;SDS011;11759;51.282;6.642;2023-07-28T12:45:45;529.03;;;265.73;;
23181;SDS011;11759;51.282;6.642;2023-07-28T12:48:15;529.00;;;263.05;;
23181;SDS011;11759;51.282;6.642;2023-07-28T12:50:45;537.03;;;269.15;;
23181;SDS011;11759;51.282;6.642;2023-07-28T12:53:13;537.88;;;283.70;;
23181;SDS011;11759;51.282;6.642;2023-07-28T12:55:45;532.80;;;265.10;;
23181;SDS011;11759;51.282;6.642;2023-07-28T12:58:14;526.05;;;242.95;;
23181;SDS011;11759;51.282;6.642;2023-07-28T13:00:44;525.38;;;238.07;;
23181;SDS011;11759;51.282;6.642;2023-07-28T13:03:13;528.17;;;237.07;;
23181;SDS011;11759;51.282;6.642;2023-07-28T13:05:40;522.75;;;227.68;;
23181;SDS011;11759;51.282;6.642;2023-07-28T13:08:09;524.80;;;223.27;;
23181;SDS011;11759;51.282;6.642;2023-07-28T13:10:36;525.95;;;230.45;;
23181;SDS011;11759;51.282;6.642;2023-07-28T13:13:06;526.92;;;225.15;;
23181;SDS011;11759;51.282;6.642;2023-07-28T13:15:39;530.58;;;243.55;;
23181;SDS011;11759;51.282;6.642;2023-07-28T13:18:06;528.13;;;249.15;;
23181;SDS011;11759;51.282;6.642;2023-07-28T13:20:33;538.03;;;269.60;;
23181;SDS011;11759;51.282;6.642;2023-07-28T13:22:59;539.15;;;271.27;;
23181;SDS011;11759;51.282;6.642;2023-07-28T13:25:26;542.15;;;286.80;;
23181;SDS011;11759;51.282;6.642;2023-07-28T13:27:53;534.90;;;273.00;;
23181;SDS011;11759;51.282;6.642;2023-07-28T13:30:20;545.50;;;308.02;;
23181;SDS011;11759;51.282;6.642;2023-07-28T13:32:46;537.80;;;289.50;;
23181;SDS011;11759;51.282;6.642;2023-07-28T13:35:13;537.65;;;283.60;;
23181;SDS011;11759;51.282;6.642;2023-07-28T13:37:41;531.72;;;267.88;;
23181;SDS011;11759;51.282;6.642;2023-07-28T13:40:08;535.03;;;268.30;;
23181;SDS011;11759;51.282;6.642;2023-07-28T13:42:37;548.65;;;284.35;;
23181;SDS011;11759;51.282;6.642;2023-07-28T13:45:04;516.83;;;221.50;;
23181;SDS011;11759;51.282;6.642;2023-07-28T13:47:31;522.00;;;235.05;;
23181;SDS011;11759;51.282;6.642;2023-07-28T13:49:58;516.53;;;216.00;;
23181;SDS011;11759;51.282;6.642;2023-07-28T13:52:24;519.58;;;220.55;;
23181;SDS011;11759;51.282;6.642;2023-07-28T13:54:51;507.48;;;189.80;;
23181;SDS011;11759;51.282;6.642;2023-07-28T13:57:21;504.63;;;182.38;;
23181;SDS011;11759;51.282;6.642;2023-07-28T13:59:48;499.58;;;172.23;;
23181;SDS011;11759;51.282;6.642;2023-07-28T14:02:16;503.60;;;170.80;;
23181;SDS011;11759;51.282;6.642;2023-07-28T14:04:44;508.63;;;178.05;;
23181;SDS011;11759;51.282;6.642;2023-07-28T14:07:10;509.85;;;175.93;;
23181;SDS011;11759;51.282;6.642;2023-07-28T14:09:37;512.65;;;172.70;;
23181;SDS011;11759;51.282;6.642;2023-07-28T14:12:05;521.58;;;191.30;;
23181;SDS011;11759;51.282;6.642;2023-07-28T14:14:32;506.27;;;170.43;;
23181;SDS011;11759;51.282;6.642;2023-07-28T14:16:58;508.95;;;180.73;;